Time,TemperatureF,DewpointF,PressureIn,WindDirection,WindDirectionDegrees,WindSpeedMPH,WindSpeedGustMPH,Humidity,HourlyPrecipIn,Conditions,Clouds,dailyrainin,SolarRadiationWatts/m^2,SoftwareType,DateUTC
2013-08-21 00:02:00,65.5,56.6,30.15,NW,315,5.8,5.8,73,0.00,CLR,,0.00,0.0,WeatherDisplay:10.37,2013-08-20 22:02:00,
2013-08-21 00:07:00,65.5,56.6,30.15,WNW,292,6.9,6.9,73,0.00,CLR,,0.00,0.0,WeatherDisplay:10.37,2013-08-20 22:07:00,
2013-08-21 00:12:00,65.5,57.0,30.15,WNW,292,6.9,6.9,74,0.00,CLR,,0.00,0.0,WeatherDisplay:10.37,2013-08-20 22:12:00,
2013-08-21 00:17:00,65.5,56.6,30.15,WNW,292,9.2,9.2,73,0.00,CLR,,0.00,0.0,WeatherDisplay:10.37,2013-08-20 22:17:00,
2013-08-21 00:22:00,65.5,57.0,30.18,North,0,5.8,5.8,74,0.00,CLR,,0.00,0.0,WeatherDisplay:10.37,2013-08-20 22:22:00,
2013-08-21 00:27:00,65.5,57.0,30.18,WNW,292,7.1,7.1,74,0.00,CLR,,0.00,0.0,WeatherDisplay:10.37,2013-08-20 22:27:00,
2013-08-21 00:32:00,65.3,56.8,30.18,WNW,292,4.7,4.7,74,0.00,CLR,,0.00,0.0,WeatherDisplay:10.37,2013-08-20 22:32:00,
2013-08-21 00:37:00,65.5,57.0,30.15,WNW,292,6.0,6.0,74,0.00,CLR,,0.00,0.0,WeatherDisplay:10.37,2013-08-20 22:37:00,
2013-08-21 00:42:00,65.3,56.4,30.15,WNW,292,8.1,8.1,73,0.00,CLR,,0.00,0.0,WeatherDisplay:10.37,2013-08-20 22:42:00,
2013-08-21 00:47:00,65.3,56.8,30.15,NNW,338,5.9,5.9,74,0.00,CLR,,0.00,0.0,WeatherDisplay:10.37,2013-08-20 22:47:00,
2013-08-21 00:52:00,65.3,56.8,30.15,WNW,292,5.8,5.8,74,0.00,CLR,,0.00,0.0,WeatherDisplay:10.37,2013-08-20 22:52:00,
2013-08-21 00:57:00,65.3,56.8,30.15,North,0,5.8,5.8,74,0.00,CLR,,0.00,0.0,WeatherDisplay:10.37,2013-08-20 22:57:00,
2013-08-21 01:02:00,65.3,56.8,30.15,NW,315,3.5,3.5,74,0.00,CLR,,0.00,0.0,WeatherDisplay:10.37,2013-08-20 23:02:00,
2013-08-21 01:07:00,65.3,56.8,30.12,NNW,338,3.5,3.5,74,0.00,CLR,,0.00,0.0,WeatherDisplay:10.37,2013-08-20 23:07:00,
2013-08-21 01:12:00,65.1,56.6,30.12,WNW,292,3.5,3.5,74,0.00,CLR,,0.00,0.0,WeatherDisplay:10.37,2013-08-20 23:12:00,
2013-08-21 01:17:00,65.1,57.0,30.12,WNW,292,4.6,4.6,75,0.00,CLR,,0.00,0.0,WeatherDisplay:10.37,2013-08-20 23:17:00,
2013-08-21 01:22:00,65.1,56.6,30.12,SSW,202,2.4,2.4,74,0.00,CLR,,0.00,0.0,WeatherDisplay:10.37,2013-08-20 23:22:00,
2013-08-21 01:28:00,65.1,57.0,30.12,SSW,202,0.0,0.0,75,0.00,CLR,,0.00,0.0,WeatherDisplay:10.37,2013-08-20 23:28:00,
2013-08-21 01:33:00,65.1,57.4,30.12,NE,45,0.0,0.0,76,0.00,CLR,,0.00,0.0,WeatherDisplay:10.37,2013-08-20 23:33:00,
2013-08-21 01:38:00,64.8,57.7,30.15,North,0,4.3,4.3,78,0.03,RA,,0.04,0.0,WeatherDisplay:10.37,2013-08-20 23:38:00,
2013-08-21 01:43:00,64.2,57.6,30.15,NNW,338,5.8,5.8,79,0.06,RA,,0.06,0.0,WeatherDisplay:10.37,2013-08-20 23:43:00,
2013-08-21 01:48:00,63.5,58.2,30.15,NNW,338,5.8,5.8,83,0.07,RA,,0.07,0.0,WeatherDisplay:10.37,2013-08-20 23:48:00,
2013-08-21 01:53:00,63.1,58.6,30.15,WNW,292,5.8,5.8,85,0.08,RA,,0.08,0.0,WeatherDisplay:10.37,2013-08-20 23:53:00,
2013-08-21 01:58:00,63.0,57.7,30.15,WNW,292,4.6,4.6,83,0.08,RA,,0.08,0.0,WeatherDisplay:10.37,2013-08-20 23:58:00,
2013-08-21 02:03:00,62.6,57.7,30.15,NNW,338,5.4,5.4,84,0.08,RA,,0.08,0.0,WeatherDisplay:10.37,2013-08-21 00:03:00,
2013-08-21 02:08:00,62.6,58.7,30.15,NNW,338,5.8,5.8,87,0.08,RA,,0.08,0.0,WeatherDisplay:10.37,2013-08-21 00:08:00,
2013-08-21 02:13:00,62.4,59.4,30.15,NNE,22,6.9,6.9,90,0.08,,,0.08,0.0,WeatherDisplay:10.37,2013-08-21 00:13:00,
2013-08-21 02:18:00,62.2,59.0,30.15,NNE,22,4.7,4.7,89,0.08,CLR,,0.08,0.0,WeatherDisplay:10.37,2013-08-21 00:18:00,
2013-08-21 02:23:00,62.2,59.9,30.15,NNW,338,4.6,4.6,92,0.08,CLR,,0.08,0.0,WeatherDisplay:10.37,2013-08-21 00:23:00,
2013-08-21 02:28:00,62.2,59.9,30.15,NW,315,4.6,4.6,92,0.09,RA,,0.09,0.0,WeatherDisplay:10.37,2013-08-21 00:28:00,
2013-08-21 02:33:00,62.2,59.3,30.15,WNW,292,2.3,0.0,90,0.09,RA,,0.09,0.0,WeatherDisplay:10.37,2013-08-21 00:33:00,
2013-08-21 02:38:00,62.1,58.8,30.15,WNW,292,2.4,2.4,89,0.05,,,0.09,0.0,WeatherDisplay:10.37,2013-08-21 00:38:00,
2013-08-21 02:43:00,62.1,58.8,30.15,NNW,338,4.6,4.6,89,0.03,CLR,,0.09,0.0,WeatherDisplay:10.37,2013-08-21 00:43:00,
2013-08-21 02:48:00,61.9,58.6,30.15,WNW,292,4.6,4.6,89,0.02,CLR,,0.09,0.0,WeatherDisplay:10.37,2013-08-21 00:48:00,
2013-08-21 02:53:00,61.9,58.6,30.15,West,270,4.6,4.6,89,0.01,CLR,,0.09,0.0,WeatherDisplay:10.37,2013-08-21 00:53:00,
2013-08-21 02:58:00,61.9,58.9,30.15,North,0,4.6,4.6,90,0.01,CLR,,0.09,0.0,WeatherDisplay:10.37,2013-08-21 00:58:00,
2013-08-21 03:03:00,61.9,58.9,30.15,NNW,338,5.8,5.8,90,0.00,CLR,,0.09,0.0,WeatherDisplay:10.37,2013-08-21 01:03:00,
2013-08-21 03:08:00,61.7,58.7,30.15,NW,315,5.8,5.8,90,0.00,CLR,,0.09,0.0,WeatherDisplay:10.37,2013-08-21 01:08:00,
2013-08-21 03:13:00,61.7,58.7,30.15,WNW,292,4.6,4.6,90,0.00,CLR,,0.09,0.0,WeatherDisplay:10.37,2013-08-21 01:13:00,
2013-08-21 03:18:00,61.7,58.7,30.15,NW,315,4.3,4.3,90,0.00,CLR,,0.09,0.0,WeatherDisplay:10.37,2013-08-21 01:18:00,
2013-08-21 03:20:00,61.7,58.7,30.15,WNW,292,4.6,4.6,90,0.00,CLR,,0.09,0.0,WeatherDisplay:10.37,2013-08-21 01:20:00,
2013-08-21 03:25:00,61.7,59.0,30.18,North,0,3.1,3.1,91,0.00,CLR,,0.09,0.0,WeatherDisplay:10.37,2013-08-21 01:25:00,
2013-08-21 03:30:00,61.5,58.9,30.18,WNW,292,3.5,3.5,91,0.00,CLR,,0.09,0.0,WeatherDisplay:10.37,2013-08-21 01:30:00,
2013-08-21 03:35:00,61.5,59.2,30.18,WNW,292,3.5,3.5,92,0.00,CLR,,0.09,0.0,WeatherDisplay:10.37,2013-08-21 01:35:00,
2013-08-21 03:40:00,61.5,58.9,30.18,NW,315,3.5,3.5,91,0.00,CLR,,0.09,0.0,WeatherDisplay:10.37,2013-08-21 01:40:00,
2013-08-21 03:45:00,61.5,59.2,30.18,WNW,292,4.6,4.6,92,0.00,CLR,,0.09,0.0,WeatherDisplay:10.37,2013-08-21 01:45:00,
2013-08-21 03:50:00,61.5,59.8,30.18,NNE,22,8.1,8.1,94,0.00,CLR,,0.09,0.0,WeatherDisplay:10.37,2013-08-21 01:50:00,
2013-08-21 03:55:00,61.3,59.3,30.18,North,0,4.6,4.6,93,0.00,CLR,,0.09,0.0,WeatherDisplay:10.37,2013-08-21 01:55:00,
2013-08-21 04:00:00,61.3,59.3,30.18,NNW,338,4.6,4.6,93,0.00,CLR,,0.09,0.0,WeatherDisplay:10.37,2013-08-21 02:00:00,
2013-08-21 04:05:00,61.3,59.3,30.18,NNW,338,4.6,4.6,93,0.00,CLR,,0.09,0.0,WeatherDisplay:10.37,2013-08-21 02:05:00,
2013-08-21 04:10:00,61.2,58.8,30.18,ENE,68,5.8,5.8,92,0.00,CLR,,0.09,0.0,WeatherDisplay:10.37,2013-08-21 02:10:00,
2013-08-21 04:15:00,61.2,58.8,30.18,NW,315,4.6,4.6,92,0.00,CLR,,0.09,0.0,WeatherDisplay:10.37,2013-08-21 02:15:00,
2013-08-21 04:20:00,61.2,58.8,30.18,WNW,292,3.5,3.5,92,0.00,CLR,,0.09,0.0,WeatherDisplay:10.37,2013-08-21 02:20:00,
2013-08-21 04:25:00,61.0,58.9,30.18,NNE,22,4.6,4.6,93,0.00,CLR,,0.09,0.0,WeatherDisplay:10.37,2013-08-21 02:25:00,
2013-08-21 04:30:00,61.0,58.9,30.18,WNW,292,5.8,5.8,93,0.00,CLR,,0.09,0.0,WeatherDisplay:10.37,2013-08-21 02:30:00,
2013-08-21 04:35:00,61.0,58.9,30.18,NW,315,6.2,6.2,93,0.00,CLR,,0.09,0.0,WeatherDisplay:10.37,2013-08-21 02:35:00,
2013-08-21 04:40:00,61.0,59.2,30.18,WNW,292,3.1,3.1,94,0.00,CLR,,0.09,0.0,WeatherDisplay:10.37,2013-08-21 02:40:00,
2013-08-21 04:45:00,61.0,58.9,30.18,NNW,338,5.8,5.8,93,0.00,CLR,,0.09,0.0,WeatherDisplay:10.37,2013-08-21 02:45:00,
2013-08-21 04:50:00,61.0,59.2,30.18,WNW,292,3.5,3.5,94,0.00,CLR,,0.09,0.0,WeatherDisplay:10.37,2013-08-21 02:50:00,
2013-08-21 04:55:00,61.0,58.9,30.18,NNW,338,4.6,4.6,93,0.00,CLR,,0.09,0.0,WeatherDisplay:10.37,2013-08-21 02:55:00,
2013-08-21 05:00:00,61.0,58.6,30.18,NNW,338,4.6,4.6,92,0.00,CLR,,0.09,0.0,WeatherDisplay:10.37,2013-08-21 03:00:00,
2013-08-21 05:05:00,61.0,58.6,30.18,WNW,292,3.5,3.5,92,0.00,CLR,,0.09,0.0,WeatherDisplay:10.37,2013-08-21 03:05:00,
2013-08-21 05:10:00,61.0,58.6,30.21,NNW,338,3.5,3.5,92,0.00,CLR,,0.09,0.0,WeatherDisplay:10.37,2013-08-21 03:10:00,
2013-08-21 05:15:00,61.0,58.3,30.21,NNW,338,2.6,2.6,91,0.00,CLR,,0.09,0.0,WeatherDisplay:10.37,2013-08-21 03:15:00,
2013-08-21 05:20:00,60.8,58.2,30.21,NNW,338,3.5,3.5,91,0.00,OVC,,0.09,0.0,WeatherDisplay:10.37,2013-08-21 03:20:00,
2013-08-21 05:25:00,60.8,58.5,30.18,NNE,22,2.3,2.3,92,0.00,OVC,,0.09,0.0,WeatherDisplay:10.37,2013-08-21 03:25:00,
2013-08-21 05:30:00,60.8,58.5,30.18,WNW,292,0.0,0.0,92,0.00,OVC,,0.09,0.0,WeatherDisplay:10.37,2013-08-21 03:30:00,
2013-08-21 05:35:00,60.8,58.2,30.18,WNW,292,3.8,3.8,91,0.00,OVC,,0.09,0.0,WeatherDisplay:10.37,2013-08-21 03:35:00,
2013-08-21 05:40:00,60.8,58.2,30.21,WNW,292,3.8,3.8,91,0.00,OVC,,0.09,0.0,WeatherDisplay:10.37,2013-08-21 03:40:00,
2013-08-21 05:45:00,60.8,58.2,30.21,NNE,22,3.5,3.5,91,0.00,OVC,,0.09,0.0,WeatherDisplay:10.37,2013-08-21 03:45:00,
2013-08-21 05:50:00,60.8,58.8,30.21,NW,315,2.6,2.6,93,0.00,OVC,,0.09,0.0,WeatherDisplay:10.37,2013-08-21 03:50:00,
2013-08-21 05:55:00,60.8,58.5,30.21,WNW,292,2.3,2.3,92,0.00,OVC,,0.09,0.0,WeatherDisplay:10.37,2013-08-21 03:55:00,
2013-08-21 06:00:00,60.8,58.5,30.21,WNW,292,2.4,2.4,92,0.00,OVC,,0.09,0.0,WeatherDisplay:10.37,2013-08-21 04:00:00,
2013-08-21 06:01:00,60.8,58.5,30.21,WNW,292,2.3,2.3,92,0.00,OVC,,0.09,0.0,WeatherDisplay:10.37,2013-08-21 04:01:00,
2013-08-21 06:06:00,60.8,58.5,30.21,NW,315,4.6,4.6,92,0.00,OVC,,0.09,3.1,WeatherDisplay:10.37,2013-08-21 04:06:00,
2013-08-21 06:11:00,60.8,58.5,30.21,WNW,292,3.5,3.5,92,0.00,OVC,,0.09,5.6,WeatherDisplay:10.37,2013-08-21 04:11:00,
2013-08-21 06:16:00,60.8,58.5,30.21,WNW,292,3.5,3.5,92,0.00,OVC,,0.09,8.1,WeatherDisplay:10.37,2013-08-21 04:16:00,
2013-08-21 06:21:00,60.8,58.5,30.24,NNW,338,4.0,4.0,92,0.00,OVC,,0.09,10.7,WeatherDisplay:10.37,2013-08-21 04:21:00,
2013-08-21 06:26:00,60.8,58.5,30.24,NNW,338,3.8,3.8,92,0.00,OVC,,0.09,13.2,WeatherDisplay:10.37,2013-08-21 04:26:00,
2013-08-21 06:31:00,60.8,58.5,30.24,North,0,3.5,3.5,92,0.00,OVC,,0.09,15.8,WeatherDisplay:10.37,2013-08-21 04:31:00,
2013-08-21 06:36:00,60.8,58.5,30.24,WNW,292,2.6,2.9,92,0.00,OVC,,0.09,18.5,WeatherDisplay:10.37,2013-08-21 04:36:00,
2013-08-21 06:41:00,61.0,58.6,30.24,NNW,338,3.5,3.5,92,0.00,OVC,,0.09,21.1,WeatherDisplay:10.37,2013-08-21 04:41:00,
2013-08-21 06:46:00,61.0,58.6,30.24,WNW,292,3.5,3.5,92,0.00,OVC,,0.09,23.8,WeatherDisplay:10.37,2013-08-21 04:46:00,
2013-08-21 06:51:00,61.0,58.6,30.18,NNW,338,3.5,3.5,92,0.00,OVC,,0.09,26.4,WeatherDisplay:10.37,2013-08-21 04:51:00,
2013-08-21 06:56:00,61.2,58.8,30.18,WNW,292,3.5,3.5,92,0.00,OVC,,0.09,29.0,WeatherDisplay:10.37,2013-08-21 04:56:00,
2013-08-21 07:01:00,61.2,58.8,30.18,WNW,292,4.6,4.6,92,0.00,OVC,,0.09,31.7,WeatherDisplay:10.37,2013-08-21 05:01:00,
2013-08-21 07:06:00,61.3,59.0,30.18,WNW,292,3.5,3.5,92,0.00,OVC,,0.09,34.5,WeatherDisplay:10.37,2013-08-21 05:06:00,
2013-08-21 07:11:00,61.3,59.0,30.18,WNW,292,3.5,3.5,92,0.00,OVC,,0.09,37.3,WeatherDisplay:10.37,2013-08-21 05:11:00,
2013-08-21 07:16:00,61.5,59.2,30.18,NW,315,3.5,3.5,92,0.00,OVC,,0.09,39.9,WeatherDisplay:10.37,2013-08-21 05:16:00,
2013-08-21 07:21:00,61.7,59.0,30.18,NW,315,2.3,2.3,91,0.00,OVC,,0.09,42.7,WeatherDisplay:10.37,2013-08-21 05:21:00,
2013-08-21 07:26:00,61.7,59.0,30.18,NNW,338,3.8,3.8,91,0.00,OVC,,0.09,45.5,WeatherDisplay:10.37,2013-08-21 05:26:00,
2013-08-21 07:31:00,61.9,59.2,30.18,NW,315,4.6,4.6,91,0.00,OVC,,0.09,48.3,WeatherDisplay:10.37,2013-08-21 05:31:00,
2013-08-21 07:36:00,61.9,59.2,30.18,WNW,292,6.2,6.2,91,0.00,OVC,,0.09,51.1,WeatherDisplay:10.37,2013-08-21 05:36:00,
2013-08-21 07:41:00,62.1,59.4,30.18,NNW,338,4.6,4.6,91,0.00,OVC,,0.09,54.0,WeatherDisplay:10.37,2013-08-21 05:41:00,
2013-08-21 07:46:00,62.2,59.6,30.18,NNW,338,5.8,5.8,91,0.00,OVC,,0.09,56.8,WeatherDisplay:10.37,2013-08-21 05:46:00,
2013-08-21 07:51:00,62.4,59.4,30.21,NW,315,4.6,4.6,90,0.00,OVC,,0.09,59.6,WeatherDisplay:10.37,2013-08-21 05:51:00,
2013-08-21 07:56:00,62.6,59.3,30.21,WNW,292,3.5,3.5,89,0.00,OVC,,0.09,62.4,WeatherDisplay:10.37,2013-08-21 05:56:00,
2013-08-21 08:01:00,62.6,59.3,30.21,NNW,338,4.6,4.6,89,0.00,RA,,0.00,65.2,WeatherDisplay:10.37,2013-08-21 06:01:00,
2013-08-21 08:06:00,62.8,59.5,30.21,WNW,292,4.0,4.0,89,0.00,RA,,0.00,68.0,WeatherDisplay:10.37,2013-08-21 06:06:00,
2013-08-21 08:11:00,63.0,59.3,30.21,West,270,2.9,2.9,88,0.00,OVC,,0.00,71.0,WeatherDisplay:10.37,2013-08-21 06:11:00,
2013-08-21 08:16:00,63.1,59.5,30.21,WNW,292,4.6,4.6,88,0.00,OVC,,0.00,73.8,WeatherDisplay:10.37,2013-08-21 06:16:00,
2013-08-21 08:21:00,63.1,59.5,30.21,NNW,338,6.0,6.0,88,0.00,OVC,,0.00,76.6,WeatherDisplay:10.37,2013-08-21 06:21:00,
2013-08-21 08:26:00,63.3,59.7,30.21,WNW,292,5.8,5.8,88,0.00,OVC,,0.00,79.4,WeatherDisplay:10.37,2013-08-21 06:26:00,
2013-08-21 08:31:00,63.5,59.9,30.21,North,0,4.6,4.6,88,0.00,OVC,,0.00,82.2,WeatherDisplay:10.37,2013-08-21 06:31:00,
2013-08-21 08:36:00,63.5,59.9,30.21,WNW,292,5.8,5.8,88,0.00,OVC,,0.00,85.0,WeatherDisplay:10.37,2013-08-21 06:36:00,
2013-08-21 08:41:00,63.5,59.6,30.21,NNW,338,4.6,4.6,87,0.00,OVC,,0.00,87.8,WeatherDisplay:10.37,2013-08-21 06:41:00,
2013-08-21 08:46:00,63.7,59.7,30.21,NNW,338,4.6,4.6,87,0.00,OVC,,0.00,90.4,WeatherDisplay:10.37,2013-08-21 06:46:00,
2013-08-21 08:51:00,63.9,59.9,30.21,NNW,338,5.9,5.9,87,0.00,OVC,,0.00,93.2,WeatherDisplay:10.37,2013-08-21 06:51:00,
2013-08-21 08:56:00,63.9,60.2,30.21,NW,315,5.8,5.8,88,0.00,OVC,,0.00,96.0,WeatherDisplay:10.37,2013-08-21 06:56:00,
2013-08-21 09:01:00,64.0,60.1,30.21,NNW,338,3.5,3.5,87,0.00,OVC,,0.00,98.7,WeatherDisplay:10.37,2013-08-21 07:01:00,
2013-08-21 09:06:00,64.2,60.3,30.21,NNE,22,4.6,4.7,87,0.00,OVC,,0.00,101.3,WeatherDisplay:10.37,2013-08-21 07:06:00,
2013-08-21 09:11:00,64.2,60.3,30.21,WNW,292,4.6,4.6,87,0.00,OVC,,0.00,104.1,WeatherDisplay:10.37,2013-08-21 07:11:00,
2013-08-21 09:16:00,64.4,60.1,30.21,NNW,338,5.8,5.8,86,0.00,OVC,,0.00,106.8,WeatherDisplay:10.37,2013-08-21 07:16:00,
2013-08-21 09:21:00,64.6,60.3,30.21,NW,315,5.8,5.8,86,0.00,OVC,,0.00,109.4,WeatherDisplay:10.37,2013-08-21 07:21:00,
2013-08-21 09:26:00,64.8,60.5,30.21,NNW,338,5.8,5.8,86,0.00,OVC,,0.00,111.9,WeatherDisplay:10.37,2013-08-21 07:26:00,
2013-08-21 09:31:00,64.9,60.6,30.21,NNW,338,4.6,4.6,86,0.00,OVC,,0.00,114.5,WeatherDisplay:10.37,2013-08-21 07:31:00,
2013-08-21 09:36:00,65.1,60.8,30.21,NNE,22,5.8,5.8,86,0.00,OVC,,0.00,117.0,WeatherDisplay:10.37,2013-08-21 07:36:00,
2013-08-21 09:41:00,65.5,60.8,30.21,NNW,338,6.9,6.9,85,0.00,OVC,,0.00,119.5,WeatherDisplay:10.37,2013-08-21 07:41:00,
2013-08-21 09:46:00,65.7,60.7,30.21,NNW,338,8.1,8.1,84,0.00,OVC,,0.00,121.9,WeatherDisplay:10.37,2013-08-21 07:46:00,
2013-08-21 09:51:00,65.8,60.5,30.18,WNW,292,5.9,5.9,83,0.00,OVC,,0.00,124.4,WeatherDisplay:10.37,2013-08-21 07:51:00,
2013-08-21 09:56:00,66.2,60.5,30.18,NW,315,8.1,8.1,82,0.00,OVC,,0.00,126.9,WeatherDisplay:10.37,2013-08-21 07:56:00,
2013-08-21 10:01:00,66.6,60.9,30.18,North,0,5.8,5.8,82,0.00,OVC,,0.00,129.2,WeatherDisplay:10.37,2013-08-21 08:01:00,
2013-08-21 10:06:00,66.7,60.7,30.24,NNW,338,6.9,6.9,81,0.00,OVC,,0.00,131.5,WeatherDisplay:10.37,2013-08-21 08:06:00,
2013-08-21 10:11:00,67.1,60.7,30.24,NNW,338,8.1,8.1,80,0.00,OVC,,0.00,133.7,WeatherDisplay:10.37,2013-08-21 08:11:00,
2013-08-21 10:16:00,67.3,61.2,30.24,North,0,6.0,6.0,81,0.00,OVC,,0.00,136.0,WeatherDisplay:10.37,2013-08-21 08:16:00,
2013-08-21 10:21:00,67.6,61.2,30.21,NNW,338,6.9,6.9,80,0.00,OVC,,0.00,138.1,WeatherDisplay:10.37,2013-08-21 08:21:00,
2013-08-21 10:26:00,67.8,61.1,30.21,NNW,338,8.1,8.1,79,0.00,OVC,,0.00,140.3,WeatherDisplay:10.37,2013-08-21 08:26:00,
2013-08-21 10:31:00,68.0,60.5,30.21,WNW,292,6.9,6.9,77,0.00,OVC,,0.00,142.4,WeatherDisplay:10.37,2013-08-21 08:31:00,
2013-08-21 10:36:00,68.0,60.9,30.24,NNE,22,4.6,4.6,78,0.00,OVC,,0.00,144.4,WeatherDisplay:10.37,2013-08-21 08:36:00,
2013-08-21 10:41:00,68.2,60.7,30.24,NNE,22,5.8,5.8,77,0.00,OVC,,0.00,146.4,WeatherDisplay:10.37,2013-08-21 08:41:00,
2013-08-21 10:46:00,68.2,60.7,30.24,NW,315,5.8,5.8,77,0.00,OVC,,0.00,148.3,WeatherDisplay:10.37,2013-08-21 08:46:00,
2013-08-21 10:51:00,68.4,60.9,30.21,NNW,338,4.6,4.6,77,0.00,OVC,,0.00,150.2,WeatherDisplay:10.37,2013-08-21 08:51:00,
2013-08-21 10:56:00,68.5,61.0,30.21,NW,315,4.6,4.6,77,0.00,OVC,,0.00,152.0,WeatherDisplay:10.37,2013-08-21 08:56:00,
2013-08-21 11:01:00,68.7,60.8,30.21,NNW,338,5.8,5.8,76,0.00,OVC,,0.00,153.6,WeatherDisplay:10.37,2013-08-21 09:01:00,
2013-08-21 11:06:00,68.9,61.0,30.18,NNE,22,6.9,6.9,76,0.00,OVC,,0.00,155.4,WeatherDisplay:10.37,2013-08-21 09:06:00,
2013-08-21 11:11:00,69.1,61.2,30.18,NNW,338,4.6,4.6,76,0.00,OVC,,0.00,157.1,WeatherDisplay:10.37,2013-08-21 09:11:00,
2013-08-21 11:16:00,69.1,60.8,30.18,NE,45,5.8,5.8,75,0.00,OVC,,0.00,158.6,WeatherDisplay:10.37,2013-08-21 09:16:00,
2013-08-21 11:21:00,69.3,60.6,30.21,NNE,22,4.6,4.6,74,0.00,OVC,,0.00,160.1,WeatherDisplay:10.37,2013-08-21 09:21:00,
2013-08-21 11:26:00,69.4,61.2,30.21,WNW,292,4.6,4.6,75,0.00,OVC,,0.00,161.5,WeatherDisplay:10.37,2013-08-21 09:26:00,
2013-08-21 11:31:00,69.8,61.1,30.21,NNE,22,4.6,4.6,74,0.00,OVC,,0.00,162.9,WeatherDisplay:10.37,2013-08-21 09:31:00,
2013-08-21 11:36:00,70.2,61.5,30.21,NNW,338,4.6,4.6,74,0.00,OVC,,0.00,164.2,WeatherDisplay:10.37,2013-08-21 09:36:00,
2013-08-21 11:41:00,70.5,61.4,30.21,WNW,292,4.6,4.6,73,0.00,OVC,,0.00,165.5,WeatherDisplay:10.37,2013-08-21 09:41:00,
2013-08-21 11:46:00,70.7,61.2,30.21,WNW,292,2.2,2.2,72,0.00,OVC,,0.00,166.7,WeatherDisplay:10.37,2013-08-21 09:46:00,
2013-08-21 11:51:00,71.1,62.0,30.21,NNW,338,4.3,4.3,73,0.00,OVC,,0.00,167.8,WeatherDisplay:10.37,2013-08-21 09:51:00,
2013-08-21 11:56:00,71.4,61.5,30.21,WNW,292,3.6,3.6,71,0.00,OVC,,0.00,168.8,WeatherDisplay:10.37,2013-08-21 09:56:00,
2013-08-21 12:01:00,71.6,61.7,30.21,NNE,22,3.5,3.5,71,0.00,OVC,,0.00,169.8,WeatherDisplay:10.37,2013-08-21 10:01:00,
2013-08-21 12:06:00,71.8,61.9,30.21,WNW,292,2.4,2.4,71,0.00,OVC,,0.00,170.6,WeatherDisplay:10.37,2013-08-21 10:06:00,
2013-08-21 12:11:00,72.1,61.8,30.21,WNW,292,4.6,4.6,70,0.00,OVC,,0.00,171.4,WeatherDisplay:10.37,2013-08-21 10:11:00,
2013-08-21 12:16:00,72.3,61.6,30.21,WNW,292,4.7,4.7,69,0.00,OVC,,0.00,172.3,WeatherDisplay:10.37,2013-08-21 10:16:00,
2013-08-21 12:21:00,72.5,61.7,30.21,NNW,338,3.8,3.8,69,0.00,OVC,,0.00,172.9,WeatherDisplay:10.37,2013-08-21 10:21:00,
2013-08-21 12:26:00,72.9,62.1,30.21,North,0,3.5,3.5,69,0.00,OVC,,0.00,173.4,WeatherDisplay:10.37,2013-08-21 10:26:00,
2013-08-21 12:31:00,73.0,61.9,30.21,North,0,4.6,4.6,68,0.00,OVC,,0.00,174.1,WeatherDisplay:10.37,2013-08-21 10:31:00,
2013-08-21 12:36:00,73.4,62.2,30.18,NNW,338,4.3,4.5,68,0.00,OVC,,0.00,174.6,WeatherDisplay:10.37,2013-08-21 10:36:00,
2013-08-21 12:41:00,73.6,61.9,30.18,NNW,338,4.6,4.6,67,0.00,OVC,,0.00,174.9,WeatherDisplay:10.37,2013-08-21 10:41:00,
2013-08-21 12:46:00,73.6,61.9,30.18,NE,45,5.8,5.8,67,0.00,OVC,,0.00,175.2,WeatherDisplay:10.37,2013-08-21 10:46:00,
2013-08-21 12:52:00,73.6,61.5,30.18,NNE,22,5.8,5.8,66,0.00,OVC,,0.00,175.4,WeatherDisplay:10.37,2013-08-21 10:52:00,
2013-08-21 12:57:00,73.8,60.8,30.18,WNW,292,3.5,3.5,64,0.00,OVC,,0.00,175.6,WeatherDisplay:10.37,2013-08-21 10:57:00,
2013-08-21 13:02:00,73.9,61.0,30.18,WNW,292,2.6,2.6,64,0.00,OVC,,0.00,175.6,WeatherDisplay:10.37,2013-08-21 11:02:00,
2013-08-21 13:07:00,74.1,60.3,30.18,NW,315,2.3,2.3,62,0.00,OVC,,0.00,175.6,WeatherDisplay:10.37,2013-08-21 11:07:00,
2013-08-21 13:12:00,74.3,60.9,30.18,WSW,248,6.2,6.2,63,0.00,OVC,,0.00,175.6,WeatherDisplay:10.37,2013-08-21 11:12:00,
2013-08-21 13:17:00,74.5,61.5,30.18,North,0,5.8,5.8,64,0.00,OVC,,0.00,175.4,WeatherDisplay:10.37,2013-08-21 11:17:00,
2013-08-21 13:22:00,74.8,61.8,30.15,NNE,22,3.5,3.5,64,0.00,OVC,,0.00,175.2,WeatherDisplay:10.37,2013-08-21 11:22:00,
2013-08-21 13:27:00,75.0,62.0,30.15,NE,45,4.6,4.6,64,0.00,OVC,,0.00,174.9,WeatherDisplay:10.37,2013-08-21 11:27:00,
2013-08-21 13:32:00,75.2,61.7,30.15,NNW,338,3.6,3.6,63,0.00,OVC,,0.00,174.6,WeatherDisplay:10.37,2013-08-21 11:32:00,
2013-08-21 13:37:00,75.2,61.7,30.15,ESE,112,2.9,2.9,63,0.00,OVC,,0.00,174.1,WeatherDisplay:10.37,2013-08-21 11:37:00,
2013-08-21 13:42:00,75.2,61.7,30.15,NNW,338,2.0,2.0,63,0.00,OVC,,0.00,173.6,WeatherDisplay:10.37,2013-08-21 11:42:00,
2013-08-21 13:47:00,75.0,62.0,30.15,NNW,338,5.8,5.8,64,0.00,OVC,,0.00,172.9,WeatherDisplay:10.37,2013-08-21 11:47:00,
2013-08-21 13:52:00,74.8,61.4,30.12,WNW,292,2.4,2.4,63,0.00,OVC,,0.00,172.3,WeatherDisplay:10.37,2013-08-21 11:52:00,
2013-08-21 13:57:00,74.7,61.7,30.12,West,270,3.5,3.5,64,0.00,OVC,,0.00,171.6,WeatherDisplay:10.37,2013-08-21 11:57:00,
2013-08-21 14:02:00,74.7,61.7,30.12,NNW,338,2.4,2.4,64,0.00,OVC,,0.00,170.8,WeatherDisplay:10.37,2013-08-21 12:02:00,
2013-08-21 14:07:00,74.3,60.9,30.15,NW,315,4.6,4.6,63,0.00,OVC,,0.00,169.8,WeatherDisplay:10.37,2013-08-21 12:07:00,
2013-08-21 14:12:00,73.9,61.0,30.15,NW,315,4.3,4.3,64,0.00,OVC,,0.00,169.0,WeatherDisplay:10.37,2013-08-21 12:12:00,
2013-08-21 14:17:00,73.8,60.8,30.15,WNW,292,4.6,4.6,64,0.00,OVC,,0.00,167.8,WeatherDisplay:10.37,2013-08-21 12:17:00,
2013-08-21 14:22:00,73.6,61.1,30.15,WSW,248,2.4,2.4,65,0.00,OVC,,0.00,166.8,WeatherDisplay:10.37,2013-08-21 12:22:00,
2013-08-21 14:27:00,73.6,60.6,30.15,WNW,292,3.5,3.5,64,0.00,OVC,,0.00,165.7,WeatherDisplay:10.37,2013-08-21 12:27:00,
2013-08-21 14:32:00,73.8,61.3,30.15,WNW,292,3.5,3.5,65,0.00,OVC,,0.00,164.3,WeatherDisplay:10.37,2013-08-21 12:32:00,
2013-08-21 14:37:00,73.8,61.3,30.15,West,270,4.6,4.6,65,0.00,OVC,,0.00,163.0,WeatherDisplay:10.37,2013-08-21 12:37:00,
2013-08-21 14:42:00,73.9,61.4,30.15,WNW,292,3.6,3.6,65,0.00,OVC,,0.00,161.7,WeatherDisplay:10.37,2013-08-21 12:42:00,
2013-08-21 14:47:00,74.1,62.0,30.15,NW,315,3.5,3.5,66,0.00,OVC,,0.00,160.2,WeatherDisplay:10.37,2013-08-21 12:47:00,
2013-08-21 14:52:00,74.5,61.9,30.15,WNW,292,2.6,2.6,65,0.00,OVC,,0.00,158.7,WeatherDisplay:10.37,2013-08-21 12:52:00,
2013-08-21 14:57:00,75.0,62.0,30.15,WNW,292,3.1,3.1,64,0.00,OVC,,0.00,157.2,WeatherDisplay:10.37,2013-08-21 12:57:00,
2013-08-21 15:02:00,75.4,61.0,30.15,WSW,248,4.6,4.6,61,0.00,OVC,,0.00,155.6,WeatherDisplay:10.37,2013-08-21 13:02:00,
2013-08-21 15:07:00,75.4,61.5,30.15,WNW,292,3.3,3.3,62,0.00,OVC,,0.00,153.9,WeatherDisplay:10.37,2013-08-21 13:07:00,
2013-08-21 15:12:00,75.4,61.5,30.15,NW,315,2.4,2.4,62,0.00,OVC,,0.00,152.1,WeatherDisplay:10.37,2013-08-21 13:12:00,
2013-08-21 15:17:00,75.6,61.6,30.15,WNW,292,4.6,4.6,62,0.00,OVC,,0.00,150.3,WeatherDisplay:10.37,2013-08-21 13:17:00,
2013-08-21 15:22:00,75.4,61.5,30.15,WNW,292,5.8,5.8,62,0.00,OVC,,0.00,148.5,WeatherDisplay:10.37,2013-08-21 13:22:00,
2013-08-21 15:27:00,75.4,60.5,30.15,WNW,292,2.3,2.3,60,0.00,OVC,,0.00,146.5,WeatherDisplay:10.37,2013-08-21 13:27:00,
2013-08-21 15:32:00,75.4,61.0,30.15,NNE,22,4.6,4.6,61,0.00,OVC,,0.00,144.5,WeatherDisplay:10.37,2013-08-21 13:32:00,
2013-08-21 15:37:00,75.7,61.8,30.15,NE,45,2.0,2.0,62,0.00,OVC,,0.00,142.6,WeatherDisplay:10.37,2013-08-21 13:37:00,
2013-08-21 15:42:00,76.6,62.2,30.15,NNW,338,5.4,5.4,61,0.00,OVC,,0.00,140.6,WeatherDisplay:10.37,2013-08-21 13:42:00,
2013-08-21 15:47:00,77.7,61.3,30.15,NNW,338,5.8,5.8,57,0.00,OVC,,0.00,138.4,WeatherDisplay:10.37,2013-08-21 13:47:00,
2013-08-21 15:52:00,78.6,63.1,30.15,SW,225,2.3,2.4,59,0.00,OVC,,0.00,136.1,WeatherDisplay:10.37,2013-08-21 13:52:00,
2013-08-21 15:57:00,78.8,61.3,30.15,West,270,6.9,6.9,55,0.00,OVC,,0.00,134.0,WeatherDisplay:10.37,2013-08-21 13:57:00,
2013-08-21 16:02:00,79.2,61.6,30.15,WNW,292,5.9,5.9,55,0.00,OVC,,0.00,131.7,WeatherDisplay:10.37,2013-08-21 14:02:00,
2013-08-21 16:07:00,79.0,62.9,30.12,WSW,248,2.3,0.0,58,0.00,OVC,,0.00,129.4,WeatherDisplay:10.37,2013-08-21 14:07:00,
2013-08-21 16:12:00,78.6,61.6,30.12,West,270,3.5,3.5,56,0.00,OVC,,0.00,127.0,WeatherDisplay:10.37,2013-08-21 14:12:00,
2013-08-21 16:17:00,78.1,61.1,30.12,NW,315,3.5,3.6,56,0.00,OVC,,0.00,124.7,WeatherDisplay:10.37,2013-08-21 14:17:00,
2013-08-21 16:22:00,77.9,60.9,30.15,NW,315,4.6,4.6,56,0.00,OVC,,0.00,122.3,WeatherDisplay:10.37,2013-08-21 14:22:00,
2013-08-21 16:27:00,77.5,59.6,30.15,WSW,248,3.5,3.5,54,0.00,OVC,,0.00,119.8,WeatherDisplay:10.37,2013-08-21 14:27:00,
2013-08-21 16:32:00,77.4,59.9,30.15,WSW,248,5.8,5.8,55,0.00,OVC,,0.00,117.3,WeatherDisplay:10.37,2013-08-21 14:32:00,
2013-08-21 16:37:00,77.4,60.9,30.12,WSW,248,4.6,4.6,57,0.00,OVC,,0.00,114.7,WeatherDisplay:10.37,2013-08-21 14:37:00,
2013-08-21 16:42:00,77.4,60.9,30.12,WNW,292,4.6,4.6,57,0.00,OVC,,0.00,112.2,WeatherDisplay:10.37,2013-08-21 14:42:00,
2013-08-21 16:47:00,77.4,61.4,30.12,WNW,292,5.8,5.8,58,0.00,OVC,,0.00,109.6,WeatherDisplay:10.37,2013-08-21 14:47:00,
2013-08-21 16:52:00,77.4,60.4,30.12,NNW,338,4.6,4.6,56,0.00,OVC,,0.00,106.9,WeatherDisplay:10.37,2013-08-21 14:52:00,
2013-08-21 16:57:00,77.2,60.3,30.12,NNW,338,3.5,3.5,56,0.00,OVC,,0.00,104.3,WeatherDisplay:10.37,2013-08-21 14:57:00,
2013-08-21 17:02:00,76.8,60.4,30.12,West,270,4.6,4.6,57,0.00,OVC,,0.00,101.6,WeatherDisplay:10.37,2013-08-21 15:02:00,
2013-08-21 17:07:00,76.5,60.6,30.12,NNW,338,3.5,3.5,58,0.00,OVC,,0.00,99.0,WeatherDisplay:10.37,2013-08-21 15:07:00,
2013-08-21 17:12:00,76.1,59.8,30.12,NNE,22,4.9,4.9,57,0.00,OVC,,0.00,96.2,WeatherDisplay:10.37,2013-08-21 15:12:00,
2013-08-21 17:17:00,75.9,60.1,30.12,NW,315,2.4,2.4,58,0.00,OVC,,0.00,93.6,WeatherDisplay:10.37,2013-08-21 15:17:00,
2013-08-21 17:22:00,75.9,60.1,30.12,NNW,338,2.3,0.0,58,0.00,OVC,,0.00,90.8,WeatherDisplay:10.37,2013-08-21 15:22:00,
2013-08-21 17:27:00,75.9,60.1,30.12,West,270,3.5,3.8,58,0.00,OVC,,0.00,87.9,WeatherDisplay:10.37,2013-08-21 15:27:00,
2013-08-21 17:32:00,75.9,60.1,30.12,West,270,3.5,3.5,58,0.00,OVC,,0.00,85.1,WeatherDisplay:10.37,2013-08-21 15:32:00,
2013-08-21 17:37:00,75.9,60.1,30.12,WNW,292,4.6,4.6,58,0.00,OVC,,0.00,82.3,WeatherDisplay:10.37,2013-08-21 15:37:00,
2013-08-21 17:42:00,75.7,59.4,30.12,NNW,338,6.9,6.9,57,0.00,OVC,,0.00,79.5,WeatherDisplay:10.37,2013-08-21 15:42:00,
2013-08-21 17:47:00,75.6,59.7,30.12,NNW,338,4.6,4.6,58,0.00,OVC,,0.00,76.7,WeatherDisplay:10.37,2013-08-21 15:47:00,
2013-08-21 17:52:00,75.6,60.2,30.12,West,270,3.5,3.5,59,0.00,OVC,,0.00,73.9,WeatherDisplay:10.37,2013-08-21 15:52:00,
2013-08-21 17:57:00,75.4,59.6,30.12,NW,315,5.8,5.8,58,0.00,OVC,,0.00,71.1,WeatherDisplay:10.37,2013-08-21 15:57:00,
2013-08-21 18:02:00,75.4,59.6,30.12,NW,315,3.5,3.5,58,0.00,OVC,,0.00,68.3,WeatherDisplay:10.37,2013-08-21 16:02:00,
2013-08-21 18:07:00,75.2,59.9,30.12,NNW,338,2.3,2.3,59,0.00,OVC,,0.00,65.5,WeatherDisplay:10.37,2013-08-21 16:07:00,
2013-08-21 18:12:00,75.2,59.4,30.12,NNW,338,3.5,3.5,58,0.00,OVC,,0.00,62.5,WeatherDisplay:10.37,2013-08-21 16:12:00,
2013-08-21 18:17:00,75.0,59.7,30.12,West,270,3.5,3.5,59,0.00,OVC,,0.00,59.7,WeatherDisplay:10.37,2013-08-21 16:17:00,
2013-08-21 18:22:00,74.8,59.5,30.12,WNW,292,3.5,3.5,59,0.00,OVC,,0.00,56.9,WeatherDisplay:10.37,2013-08-21 16:22:00,
2013-08-21 18:27:00,74.7,59.4,30.12,WNW,292,2.3,2.3,59,0.00,OVC,,0.00,54.1,WeatherDisplay:10.37,2013-08-21 16:27:00,
2013-08-21 18:32:00,74.5,59.2,30.12,West,270,2.6,2.6,59,0.00,OVC,,0.00,51.3,WeatherDisplay:10.37,2013-08-21 16:32:00,
2013-08-21 18:37:00,74.3,59.0,30.12,NNW,338,2.3,0.0,59,0.00,OVC,,0.00,48.5,WeatherDisplay:10.37,2013-08-21 16:37:00,
2013-08-21 18:42:00,74.1,58.9,30.12,WNW,292,0.0,0.0,59,0.00,OVC,,0.00,45.7,WeatherDisplay:10.37,2013-08-21 16:42:00,
2013-08-21 18:47:00,73.9,58.7,30.12,WNW,292,0.0,0.0,59,0.00,OVC,,0.00,42.4,WeatherDisplay:10.37,2013-08-21 16:47:00,
2013-08-21 18:52:00,73.8,59.0,30.12,NW,315,0.0,0.0,60,0.00,OVC,,0.00,40.1,WeatherDisplay:10.37,2013-08-21 16:52:00,
2013-08-21 18:57:00,73.8,59.0,30.12,NW,315,0.0,0.0,60,0.00,OVC,,0.00,37.5,WeatherDisplay:10.37,2013-08-21 16:57:00,
2013-08-21 19:02:00,73.6,58.8,30.12,NNW,338,2.3,0.0,60,0.00,OVC,,0.00,34.6,WeatherDisplay:10.37,2013-08-21 17:02:00,
2013-08-21 19:07:00,73.4,58.7,30.12,NW,315,0.0,0.0,60,0.00,OVC,,0.00,31.8,WeatherDisplay:10.37,2013-08-21 17:07:00,
2013-08-21 19:12:00,73.4,58.7,30.12,NNW,338,0.0,0.0,60,0.00,OVC,,0.00,29.2,WeatherDisplay:10.37,2013-08-21 17:12:00,
2013-08-21 19:17:00,73.2,59.0,30.12,NW,315,0.0,0.0,61,0.00,OVC,,0.00,26.4,WeatherDisplay:10.37,2013-08-21 17:17:00,
2013-08-21 19:22:00,73.0,58.8,30.12,NW,315,0.0,0.0,61,0.00,OVC,,0.00,23.8,WeatherDisplay:10.37,2013-08-21 17:22:00,
2013-08-21 19:27:00,72.7,58.9,30.12,NW,315,0.0,0.0,62,0.00,OVC,,0.00,21.1,WeatherDisplay:10.37,2013-08-21 17:27:00,
2013-08-21 19:32:00,72.5,58.7,30.12,NW,315,0.0,0.0,62,0.00,OVC,,0.00,18.5,WeatherDisplay:10.37,2013-08-21 17:32:00,
2013-08-21 19:37:00,72.1,58.8,30.12,NW,315,0.0,0.0,63,0.00,OVC,,0.00,15.8,WeatherDisplay:10.37,2013-08-21 17:37:00,
2013-08-21 19:42:00,72.0,58.7,30.12,NW,315,0.0,0.0,63,0.00,OVC,,0.00,13.4,WeatherDisplay:10.37,2013-08-21 17:42:00,
2013-08-21 19:47:00,71.8,58.9,30.12,NW,315,0.0,0.0,64,0.00,OVC,,0.00,10.7,WeatherDisplay:10.37,2013-08-21 17:47:00,
2013-08-21 19:52:00,71.4,58.6,30.12,NW,315,0.0,0.0,64,0.00,OVC,,0.00,8.3,WeatherDisplay:10.37,2013-08-21 17:52:00,
2013-08-21 19:57:00,71.2,58.9,30.12,NW,315,0.0,0.0,65,0.00,OVC,,0.00,5.8,WeatherDisplay:10.37,2013-08-21 17:57:00,
2013-08-21 20:02:00,71.1,58.7,30.12,NW,315,0.0,0.0,65,0.00,CLR,,0.00,0.0,WeatherDisplay:10.37,2013-08-21 18:02:00,
2013-08-21 20:07:00,70.7,58.8,30.12,NW,315,0.0,0.0,66,0.00,CLR,,0.00,0.0,WeatherDisplay:10.37,2013-08-21 18:07:00,
2013-08-21 20:12:00,70.5,58.6,30.12,WNW,292,3.3,0.0,66,0.00,CLR,,0.00,0.0,WeatherDisplay:10.37,2013-08-21 18:12:00,
2013-08-21 20:17:00,70.3,58.4,30.12,NNW,338,2.3,2.4,66,0.00,CLR,,0.00,0.0,WeatherDisplay:10.37,2013-08-21 18:17:00,
2013-08-21 20:22:00,70.2,57.8,30.12,NW,315,3.3,3.3,65,0.00,CLR,,0.00,0.0,WeatherDisplay:10.37,2013-08-21 18:22:00,
2013-08-21 20:27:00,70.0,57.2,30.12,WNW,292,3.5,3.5,64,0.00,CLR,,0.00,0.0,WeatherDisplay:10.37,2013-08-21 18:27:00,
2013-08-21 20:32:00,70.0,57.2,30.12,NW,315,2.2,2.2,64,0.00,CLR,,0.00,0.0,WeatherDisplay:10.37,2013-08-21 18:32:00,
2013-08-21 20:37:00,69.8,57.1,30.12,WNW,292,3.5,3.5,64,0.00,CLR,,0.00,0.0,WeatherDisplay:10.37,2013-08-21 18:37:00,
2013-08-21 20:42:00,69.8,57.1,30.12,WNW,292,2.3,2.3,64,0.00,CLR,,0.00,0.0,WeatherDisplay:10.37,2013-08-21 18:42:00,
2013-08-21 20:47:00,69.6,56.9,30.12,WNW,292,2.3,2.3,64,0.00,CLR,,0.00,0.0,WeatherDisplay:10.37,2013-08-21 18:47:00,
2013-08-21 20:52:00,69.4,56.7,30.12,NW,315,2.3,2.3,64,0.00,CLR,,0.00,0.0,WeatherDisplay:10.37,2013-08-21 18:52:00,
2013-08-21 20:57:00,69.1,56.4,30.12,NW,315,2.3,2.3,64,0.00,CLR,,0.00,0.0,WeatherDisplay:10.37,2013-08-21 18:57:00,
2013-08-21 21:02:00,68.9,56.2,30.12,NNW,338,2.3,2.3,64,0.00,CLR,,0.00,0.0,WeatherDisplay:10.37,2013-08-21 19:02:00,
2013-08-21 21:07:00,68.9,56.2,30.12,WNW,292,2.3,2.3,64,0.00,CLR,,0.00,0.0,WeatherDisplay:10.37,2013-08-21 19:07:00,
2013-08-21 21:12:00,68.5,56.3,30.12,NNW,338,2.3,2.3,65,0.00,CLR,,0.00,0.0,WeatherDisplay:10.37,2013-08-21 19:12:00,
2013-08-21 21:17:00,68.4,56.1,30.12,NNW,338,2.3,2.3,65,0.00,CLR,,0.00,0.0,WeatherDisplay:10.37,2013-08-21 19:17:00,
2013-08-21 21:22:00,68.4,56.1,30.15,NNW,338,2.3,2.3,65,0.00,CLR,,0.00,0.0,WeatherDisplay:10.37,2013-08-21 19:22:00,
2013-08-21 21:27:00,68.0,55.8,30.15,NNW,338,2.3,2.3,65,0.00,CLR,,0.00,0.0,WeatherDisplay:10.37,2013-08-21 19:27:00,
2013-08-21 21:32:00,68.0,55.8,30.15,NW,315,2.3,2.3,65,0.00,CLR,,0.00,0.0,WeatherDisplay:10.37,2013-08-21 19:32:00,
2013-08-21 21:37:00,67.8,56.0,30.12,NNW,338,2.3,2.3,66,0.00,CLR,,0.00,0.0,WeatherDisplay:10.37,2013-08-21 19:37:00,
2013-08-21 21:42:00,67.6,55.9,30.12,NNW,338,0.0,0.0,66,0.00,CLR,,0.00,0.0,WeatherDisplay:10.37,2013-08-21 19:42:00,
2013-08-21 21:47:00,67.3,55.5,30.12,WNW,292,2.3,2.3,66,0.00,CLR,,0.00,0.0,WeatherDisplay:10.37,2013-08-21 19:47:00,
2013-08-21 21:52:00,67.1,55.8,30.12,NNW,338,2.3,2.3,67,0.00,CLR,,0.00,0.0,WeatherDisplay:10.37,2013-08-21 19:52:00,
2013-08-21 21:57:00,66.9,55.6,30.12,NNW,338,2.3,2.3,67,0.00,CLR,,0.00,0.0,WeatherDisplay:10.37,2013-08-21 19:57:00,
2013-08-21 22:02:00,66.7,55.4,30.12,NW,315,2.3,2.3,67,0.00,CLR,,0.00,0.0,WeatherDisplay:10.37,2013-08-21 20:02:00,
2013-08-21 22:07:00,66.4,55.5,30.12,NW,315,0.0,0.0,68,0.00,CLR,,0.00,0.0,WeatherDisplay:10.37,2013-08-21 20:07:00,
2013-08-21 22:12:00,66.2,55.3,30.12,NW,315,0.0,0.0,68,0.00,CLR,,0.00,0.0,WeatherDisplay:10.37,2013-08-21 20:12:00,
2013-08-21 22:17:00,66.0,55.2,30.12,ESE,112,2.4,2.4,68,0.00,CLR,,0.00,0.0,WeatherDisplay:10.37,2013-08-21 20:17:00,
2013-08-21 22:22:00,65.8,55.8,30.15,ENE,68,3.5,0.0,70,0.00,CLR,,0.00,0.0,WeatherDisplay:10.37,2013-08-21 20:22:00,
2013-08-21 22:27:00,65.8,55.8,30.15,ENE,68,1.6,1.6,70,0.00,CLR,,0.00,0.0,WeatherDisplay:10.37,2013-08-21 20:27:00,
2013-08-21 22:32:00,66.0,56.0,30.15,NNE,22,0.0,0.0,70,0.00,CLR,,0.00,0.0,WeatherDisplay:10.37,2013-08-21 20:32:00,
2013-08-21 22:37:00,66.0,56.0,30.15,NNW,338,0.0,0.0,70,0.00,CLR,,0.00,0.0,WeatherDisplay:10.37,2013-08-21 20:37:00,
2013-08-21 22:42:00,66.2,56.1,30.15,NNE,22,2.3,2.3,70,0.00,CLR,,0.00,0.0,WeatherDisplay:10.37,2013-08-21 20:42:00,
2013-08-21 22:47:00,66.2,56.1,30.15,North,0,2.3,2.3,70,0.00,CLR,,0.00,0.0,WeatherDisplay:10.37,2013-08-21 20:47:00,
2013-08-21 22:52:00,66.4,56.7,30.15,ESE,112,2.2,0.0,71,0.00,CLR,,0.00,0.0,WeatherDisplay:10.37,2013-08-21 20:52:00,
2013-08-21 22:57:00,66.6,56.9,30.15,ESE,112,3.5,3.5,71,0.00,CLR,,0.00,0.0,WeatherDisplay:10.37,2013-08-21 20:57:00,
2013-08-21 23:02:00,66.7,57.4,30.15,WSW,248,4.9,4.9,72,0.00,CLR,,0.00,0.0,WeatherDisplay:10.37,2013-08-21 21:02:00,
2013-08-21 23:07:00,66.9,58.0,30.15,SSE,158,4.6,4.6,73,0.00,CLR,,0.00,0.0,WeatherDisplay:10.37,2013-08-21 21:07:00,
2013-08-21 23:12:00,67.1,58.2,30.15,ENE,68,4.3,4.3,73,0.00,CLR,,0.00,0.0,WeatherDisplay:10.37,2013-08-21 21:12:00,
2013-08-21 23:17:00,67.3,58.3,30.15,ESE,112,4.6,4.6,73,0.00,CLR,,0.00,0.0,WeatherDisplay:10.37,2013-08-21 21:17:00,
2013-08-21 23:22:00,67.5,58.5,30.15,ESE,112,5.8,5.8,73,0.00,CLR,,0.00,0.0,WeatherDisplay:10.37,2013-08-21 21:22:00,
2013-08-21 23:27:00,67.6,58.7,30.15,SSW,202,0.9,0.0,73,0.00,CLR,,0.00,0.0,WeatherDisplay:10.37,2013-08-21 21:27:00,
2013-08-21 23:32:00,67.6,58.7,30.15,SSW,202,1.2,1.2,73,0.00,CLR,,0.00,0.0,WeatherDisplay:10.37,2013-08-21 21:32:00,
2013-08-21 23:37:00,67.6,58.7,30.15,SSW,202,1.4,0.0,73,0.00,CLR,,0.00,0.0,WeatherDisplay:10.37,2013-08-21 21:37:00,
2013-08-21 23:42:00,67.6,58.7,30.15,SSE,158,2.2,2.2,73,0.00,CLR,,0.00,0.0,WeatherDisplay:10.37,2013-08-21 21:42:00,
2013-08-21 23:47:00,67.6,58.7,30.15,ESE,112,3.5,3.5,73,0.00,CLR,,0.00,0.0,WeatherDisplay:10.37,2013-08-21 21:47:00,
2013-08-21 23:52:00,67.3,57.9,30.15,ESE,112,4.6,4.6,72,0.00,CLR,,0.00,0.0,WeatherDisplay:10.37,2013-08-21 21:52:00,
2013-08-21 23:57:00,67.3,57.6,30.15,East,90,4.6,4.6,71,0.00,CLR,,0.00,0.0,WeatherDisplay:10.37,2013-08-21 21:57:00,